createdAt,value
2017-12-16T00:01:35.151Z,18.48
2017-12-16T00:04:03.390Z,17.54
2017-12-16T00:06:31.674Z,17.18
2017-12-16T00:09:00.000Z,18.68
2017-12-16T00:11:29.147Z,18.00
2017-12-16T00:13:58.299Z,18.46
2017-12-16T00:16:26.592Z,18.36
2017-12-16T00:18:54.862Z,17.52
2017-12-16T00:21:22.435Z,17.28
2017-12-16T00:23:49.917Z,17.30
2017-12-16T00:26:18.171Z,16.70
2017-12-16T00:28:46.447Z,17.06
2017-12-16T00:31:14.734Z,18.06
2017-12-16T00:33:42.214Z,15.38
2017-12-16T00:36:10.502Z,17.40
2017-12-16T00:38:38.821Z,15.28
2017-12-16T00:41:07.098Z,16.26
2017-12-16T00:43:35.341Z,17.02
2017-12-16T00:46:03.632Z,15.90
2017-12-16T00:48:31.890Z,17.38
2017-12-16T00:51:00.172Z,20.20
2017-12-16T00:53:29.321Z,19.18
2017-12-16T00:55:57.594Z,19.02
2017-12-16T00:58:25.852Z,18.76
2017-12-16T01:00:54.135Z,18.50
2017-12-16T01:03:21.656Z,18.88
2017-12-16T01:05:49.956Z,17.50
2017-12-16T01:08:18.214Z,16.72
2017-12-16T01:10:46.465Z,16.38
2017-12-16T01:13:14.743Z,16.02
2017-12-16T01:15:43.022Z,17.12
2017-12-16T01:18:11.270Z,17.80
2017-12-16T01:20:39.539Z,17.90
2017-12-16T01:23:07.824Z,18.62
2017-12-16T01:25:36.080Z,18.28
2017-12-16T01:28:04.374Z,17.58
2017-12-16T01:30:32.626Z,19.56
2017-12-16T01:33:00.935Z,19.56
2017-12-16T01:35:41.138Z,18.90
2017-12-16T01:38:21.058Z,18.68
2017-12-16T01:40:49.306Z,18.42
2017-12-16T01:43:17.591Z,18.86
2017-12-16T01:45:45.868Z,20.32
2017-12-16T01:48:14.165Z,20.02
2017-12-16T01:50:42.451Z,19.90
2017-12-16T01:53:10.730Z,18.98
2017-12-16T01:55:38.241Z,19.08
2017-12-16T01:58:06.513Z,20.06
2017-12-16T02:00:34.770Z,18.64
2017-12-16T02:03:03.060Z,21.14
2017-12-16T02:05:31.309Z,18.68
2017-12-16T02:08:05.482Z,17.56
2017-12-16T02:10:33.723Z,19.28
2017-12-16T02:13:02.016Z,16.72
2017-12-16T02:15:30.269Z,19.84
2017-12-16T02:17:58.551Z,18.72
2017-12-16T02:20:26.805Z,18.42
2017-12-16T02:22:55.118Z,16.74
2017-12-16T02:25:23.380Z,19.02
2017-12-16T02:27:51.657Z,18.60
2017-12-16T02:30:19.902Z,18.88
2017-12-16T02:32:48.150Z,18.10
2017-12-16T02:35:16.433Z,20.80
2017-12-16T02:37:44.692Z,20.06
2017-12-16T02:40:12.978Z,20.66
2017-12-16T02:42:41.279Z,18.98
2017-12-16T02:45:09.527Z,20.86
2017-12-16T02:47:37.786Z,20.70
2017-12-16T02:50:05.318Z,20.20
2017-12-16T02:52:33.583Z,19.28
2017-12-16T02:55:01.830Z,19.32
2017-12-16T02:57:30.103Z,19.12
2017-12-16T02:59:58.982Z,18.40
2017-12-16T03:02:28.491Z,18.38
2017-12-16T03:04:56.749Z,18.68
2017-12-16T03:07:25.029Z,19.02
2017-12-16T03:09:53.273Z,18.04
2017-12-16T03:12:21.526Z,20.30
2017-12-16T03:14:49.806Z,22.70
2017-12-16T03:17:18.050Z,23.52
2017-12-16T03:19:46.322Z,25.52
2017-12-16T03:22:14.574Z,21.22
2017-12-16T03:24:42.854Z,23.06
2017-12-16T03:27:11.102Z,21.66
2017-12-16T03:29:39.385Z,22.62
2017-12-16T03:32:07.641Z,23.42
2017-12-16T03:34:35.889Z,22.16
2017-12-16T03:37:04.170Z,20.56
2017-12-16T03:39:32.415Z,22.02
2017-12-16T03:42:00.672Z,22.76
2017-12-16T03:44:30.094Z,22.90
2017-12-16T03:46:59.197Z,22.70
2017-12-16T03:49:28.297Z,22.06
2017-12-16T03:51:56.585Z,23.14
2017-12-16T03:54:24.834Z,22.86
2017-12-16T03:56:53.090Z,25.54
2017-12-16T03:59:21.370Z,23.64
2017-12-16T04:01:49.622Z,24.38
2017-12-16T04:04:17.904Z,24.02
2017-12-16T04:06:46.191Z,25.36
2017-12-16T04:09:14.431Z,26.18
2017-12-16T04:11:42.710Z,24.90
2017-12-16T04:14:10.966Z,25.36
2017-12-16T04:16:39.250Z,25.32
2017-12-16T04:19:07.501Z,24.80
2017-12-16T04:21:35.797Z,24.46
2017-12-16T04:24:04.050Z,24.06
2017-12-16T04:26:32.311Z,24.48
2017-12-16T04:28:59.830Z,24.72
2017-12-16T04:31:29.110Z,23.24
2017-12-16T04:33:58.172Z,24.26
2017-12-16T04:36:26.413Z,25.02
2017-12-16T04:38:54.698Z,24.82
2017-12-16T04:41:22.942Z,23.50
2017-12-16T04:43:51.238Z,21.74
2017-12-16T04:46:19.490Z,24.84
2017-12-16T04:48:47.741Z,24.14
2017-12-16T04:51:16.022Z,25.02
2017-12-16T04:53:43.510Z,24.32
2017-12-16T04:56:11.786Z,22.16
2017-12-16T04:58:40.035Z,23.16
2017-12-16T05:01:08.317Z,25.90
2017-12-16T05:03:36.599Z,23.98
2017-12-16T05:06:04.846Z,24.00
2017-12-16T05:08:33.130Z,24.08
2017-12-16T05:11:01.378Z,23.12
2017-12-16T05:13:29.650Z,27.60
2017-12-16T05:15:58.573Z,25.28
2017-12-16T05:18:26.842Z,20.72
2017-12-16T05:20:55.122Z,26.18
2017-12-16T05:23:23.366Z,25.44
2017-12-16T05:25:51.643Z,22.02
2017-12-16T05:28:19.898Z,24.02
2017-12-16T05:30:48.175Z,24.78
2017-12-16T05:33:16.422Z,26.22
2017-12-16T05:35:44.723Z,25.54
2017-12-16T05:38:12.965Z,28.38
2017-12-16T05:40:41.221Z,28.30
2017-12-16T05:43:09.501Z,25.36
2017-12-16T05:45:37.751Z,27.70
2017-12-16T05:48:06.050Z,26.10
2017-12-16T05:50:34.302Z,27.02
2017-12-16T05:53:02.549Z,25.82
2017-12-16T05:55:30.833Z,27.04
2017-12-16T05:57:59.670Z,29.70
2017-12-16T06:00:28.969Z,28.00
2017-12-16T06:02:57.227Z,28.40
2017-12-16T06:05:25.500Z,29.92
2017-12-16T06:07:53.762Z,26.96
2017-12-16T06:10:22.121Z,29.42
2017-12-16T06:12:50.360Z,30.10
2017-12-16T06:15:18.610Z,28.86
2017-12-16T06:17:46.894Z,29.40
2017-12-16T06:20:15.146Z,30.84
2017-12-16T06:22:43.422Z,28.04
2017-12-16T06:25:11.698Z,34.00
2017-12-16T06:27:39.988Z,29.92
2017-12-16T06:30:08.282Z,30.02
2017-12-16T06:32:36.541Z,27.70
2017-12-16T06:35:04.794Z,26.58
2017-12-16T06:37:33.074Z,27.62
2017-12-16T06:40:00.549Z,26.92
2017-12-16T06:42:30.078Z,27.04
2017-12-16T06:44:59.285Z,26.92
2017-12-16T06:47:27.566Z,25.00
2017-12-16T06:49:55.819Z,26.76
2017-12-16T06:52:24.093Z,21.22
2017-12-16T06:54:52.350Z,26.12
2017-12-16T06:57:20.633Z,24.98
2017-12-16T06:59:48.890Z,25.38
2017-12-16T07:02:17.173Z,24.48
2017-12-16T07:04:45.434Z,23.40
2017-12-16T07:07:13.713Z,23.64
2017-12-16T07:09:41.962Z,23.30
2017-12-16T07:12:10.245Z,22.02
2017-12-16T07:14:38.554Z,25.26
2017-12-16T07:17:06.802Z,24.36
2017-12-16T07:19:35.056Z,23.50
2017-12-16T07:22:03.337Z,24.16
2017-12-16T07:24:31.582Z,22.36
2017-12-16T07:26:59.871Z,22.80
2017-12-16T07:29:29.593Z,24.70
2017-12-16T07:31:58.822Z,21.46
2017-12-16T07:34:27.102Z,23.82
2017-12-16T07:36:55.381Z,24.38
2017-12-16T07:39:23.634Z,21.44
2017-12-16T07:41:51.910Z,21.24
2017-12-16T07:44:20.163Z,23.48
2017-12-16T07:46:48.410Z,21.04
2017-12-16T07:49:16.691Z,24.52
2017-12-16T07:51:44.970Z,20.12
2017-12-16T07:54:13.250Z,21.62
2017-12-16T07:56:40.735Z,20.08
2017-12-16T07:59:09.009Z,20.54
2017-12-16T08:01:37.262Z,22.94
2017-12-16T08:04:04.783Z,22.58
2017-12-16T08:06:33.029Z,20.84
2017-12-16T08:09:01.307Z,20.02
2017-12-16T08:11:29.937Z,20.18
2017-12-16T08:13:58.185Z,17.74
2017-12-16T08:16:26.470Z,20.84
2017-12-16T08:18:54.713Z,18.74
2017-12-16T08:21:22.990Z,18.48
2017-12-16T08:23:51.238Z,17.92
2017-12-16T08:26:19.514Z,20.06
2017-12-16T08:28:47.765Z,18.68
2017-12-16T08:31:16.067Z,17.72
2017-12-16T08:33:44.317Z,18.50
2017-12-16T08:36:12.566Z,16.56
2017-12-16T08:38:40.836Z,16.24
2017-12-16T08:41:09.117Z,16.92
2017-12-16T08:43:37.386Z,15.28
2017-12-16T08:46:05.646Z,15.14
2017-12-16T08:48:33.922Z,15.50
2017-12-16T08:51:02.194Z,15.76
2017-12-16T08:53:30.449Z,15.52
2017-12-16T08:55:59.742Z,12.10
2017-12-16T08:58:27.986Z,13.02
2017-12-16T09:00:56.262Z,12.42
2017-12-16T09:03:26.069Z,13.20
2017-12-16T09:05:54.353Z,12.64
2017-12-16T09:08:22.601Z,13.14
2017-12-16T09:10:50.878Z,12.86
2017-12-16T09:13:19.126Z,13.96
2017-12-16T09:15:47.406Z,14.48
2017-12-16T09:18:15.666Z,13.68
2017-12-16T09:20:44.589Z,13.68
2017-12-16T09:23:12.843Z,13.36
2017-12-16T09:25:40.351Z,16.04
2017-12-16T09:28:08.594Z,13.98
2017-12-16T09:30:36.886Z,15.26
2017-12-16T09:33:05.129Z,13.74
2017-12-16T09:35:33.378Z,13.34
2017-12-16T09:38:01.645Z,12.48
2017-12-16T09:40:30.553Z,11.52
2017-12-16T09:42:59.654Z,11.60
2017-12-16T09:45:27.901Z,11.12
2017-12-16T09:47:56.177Z,13.12
2017-12-16T09:50:24.462Z,10.12
2017-12-16T09:52:52.714Z,11.66
2017-12-16T09:55:20.997Z,14.36
2017-12-16T09:57:49.273Z,10.86
2017-12-16T10:00:17.527Z,9.92
2017-12-16T10:02:45.810Z,10.68
2017-12-16T10:05:14.062Z,10.10
2017-12-16T10:07:42.350Z,10.06
2017-12-16T10:10:10.627Z,10.82
2017-12-16T10:12:38.875Z,9.52
2017-12-16T10:15:07.165Z,9.18
2017-12-16T10:17:35.410Z,11.14
2017-12-16T10:20:02.913Z,8.70
2017-12-16T10:22:31.174Z,8.64
2017-12-16T10:25:00.638Z,8.74
2017-12-16T10:27:29.730Z,9.56
2017-12-16T10:29:57.973Z,8.78
2017-12-16T10:32:27.302Z,9.40
2017-12-16T10:34:55.543Z,9.10
2017-12-16T10:37:23.782Z,8.38
2017-12-16T10:39:52.078Z,7.36
2017-12-16T10:42:20.346Z,7.58
2017-12-16T10:44:48.595Z,7.26
2017-12-16T10:47:16.902Z,7.08
2017-12-16T10:49:45.137Z,7.00
2017-12-16T10:52:13.385Z,7.42
2017-12-16T10:54:41.659Z,6.14
2017-12-16T10:57:09.937Z,6.88
2017-12-16T10:59:38.194Z,6.40
2017-12-16T11:02:06.465Z,5.50
2017-12-16T11:04:34.706Z,6.28
2017-12-16T11:07:03.003Z,6.62
2017-12-16T11:09:31.245Z,6.98
2017-12-16T11:11:59.998Z,6.52
2017-12-16T11:14:28.938Z,5.90
2017-12-16T11:16:57.182Z,5.76
2017-12-16T11:19:25.425Z,6.60
2017-12-16T11:21:53.717Z,7.04
2017-12-16T11:24:21.957Z,6.84
2017-12-16T11:26:50.197Z,5.88
2017-12-16T11:29:18.478Z,8.50
2017-12-16T11:31:46.749Z,6.10
2017-12-16T11:34:15.018Z,6.38
2017-12-16T11:36:43.310Z,5.90
2017-12-16T11:39:11.560Z,6.60
2017-12-16T11:41:39.850Z,6.20
2017-12-16T11:44:08.126Z,5.64
2017-12-16T11:46:36.370Z,5.02
2017-12-16T11:49:03.861Z,5.66
2017-12-16T11:51:32.110Z,6.46
2017-12-16T11:54:00.381Z,5.40
2017-12-16T11:56:29.622Z,5.40
2017-12-16T11:58:57.905Z,7.26
2017-12-16T12:01:26.177Z,4.92
2017-12-16T12:03:54.422Z,4.32
2017-12-16T12:06:22.702Z,5.98
2017-12-16T12:08:50.942Z,6.14
2017-12-16T12:11:19.222Z,6.30
2017-12-16T12:13:47.467Z,3.90
2017-12-16T12:16:14.978Z,4.82
2017-12-16T12:18:43.225Z,4.06
2017-12-16T12:21:11.517Z,3.96
2017-12-16T12:23:39.762Z,5.84
2017-12-16T12:26:08.006Z,5.50
2017-12-16T12:28:36.290Z,3.92
2017-12-16T12:31:04.594Z,4.50
2017-12-16T12:33:32.835Z,3.94
2017-12-16T12:36:01.107Z,3.68
2017-12-16T12:38:29.737Z,3.90
2017-12-16T12:40:58.021Z,4.08
2017-12-16T12:43:26.294Z,4.08
2017-12-16T12:45:54.569Z,3.98
2017-12-16T12:48:22.813Z,4.06
2017-12-16T12:50:51.090Z,3.52
2017-12-16T12:53:19.339Z,3.72
2017-12-16T12:55:47.609Z,4.14
2017-12-16T12:58:15.854Z,3.62
2017-12-16T13:00:43.367Z,3.82
2017-12-16T13:03:11.619Z,3.60
2017-12-16T13:05:39.893Z,3.64
2017-12-16T13:08:08.142Z,4.20
2017-12-16T13:10:36.410Z,4.30
2017-12-16T13:13:04.693Z,3.62
2017-12-16T13:15:32.942Z,4.12
2017-12-16T13:18:01.220Z,4.02
2017-12-16T13:20:30.782Z,4.34
2017-12-16T13:22:59.958Z,4.60
2017-12-16T13:25:27.437Z,3.92
2017-12-16T13:27:54.918Z,3.94
2017-12-16T13:30:23.197Z,3.72
2017-12-16T13:32:51.437Z,3.34
2017-12-16T13:35:19.711Z,5.60
2017-12-16T13:37:47.958Z,3.58
2017-12-16T13:40:16.234Z,4.62
2017-12-16T13:42:44.482Z,4.16
2017-12-16T13:45:12.755Z,3.82
2017-12-16T13:47:41.024Z,4.00
2017-12-16T13:50:09.261Z,3.84
2017-12-16T13:52:37.545Z,3.44
2017-12-16T13:55:05.822Z,4.30
2017-12-16T13:57:34.066Z,3.90
2017-12-16T14:00:02.314Z,4.98
2017-12-16T14:02:30.594Z,4.12
2017-12-16T14:05:00.193Z,4.90
2017-12-16T14:07:28.433Z,4.96
2017-12-16T14:09:56.725Z,3.98
2017-12-16T14:12:24.974Z,3.54
2017-12-16T14:14:53.222Z,3.14
2017-12-16T14:17:21.540Z,3.42
2017-12-16T14:19:49.816Z,3.26
2017-12-16T14:22:18.056Z,2.42
2017-12-16T14:24:46.298Z,3.38
2017-12-16T14:27:14.566Z,4.76
2017-12-16T14:29:42.896Z,3.06
2017-12-16T14:32:11.090Z,3.34
2017-12-16T14:34:39.371Z,3.58
2017-12-16T14:37:07.669Z,3.02
2017-12-16T14:39:35.953Z,3.58
2017-12-16T14:42:04.203Z,3.24
2017-12-16T14:44:31.766Z,3.20
2017-12-16T14:47:00.591Z,3.42
2017-12-16T14:49:29.840Z,3.40
2017-12-16T14:51:58.805Z,5.38
2017-12-16T14:54:27.088Z,4.10
2017-12-16T14:56:55.362Z,4.32
2017-12-16T14:59:23.610Z,3.26
2017-12-16T15:01:51.885Z,4.18
2017-12-16T15:04:20.172Z,3.58
2017-12-16T15:06:48.414Z,2.88
2017-12-16T15:09:16.686Z,3.82
2017-12-16T15:11:44.973Z,3.76
2017-12-16T15:14:13.238Z,4.98
2017-12-16T15:16:41.511Z,3.52
2017-12-16T15:19:09.746Z,4.10
2017-12-16T15:21:38.033Z,5.20
2017-12-16T15:24:06.447Z,3.38
2017-12-16T15:26:34.699Z,4.46
2017-12-16T15:29:02.974Z,3.82
2017-12-16T15:31:31.222Z,4.04
2017-12-16T15:34:00.526Z,5.32
2017-12-16T15:36:30.141Z,4.10
2017-12-16T15:38:58.780Z,4.38
2017-12-16T15:41:27.053Z,3.92
2017-12-16T15:43:55.322Z,4.72
2017-12-16T15:46:23.612Z,3.34
2017-12-16T15:48:51.889Z,4.64
2017-12-16T15:51:20.133Z,3.90
2017-12-16T15:53:48.421Z,3.92
2017-12-16T15:56:16.671Z,3.72
2017-12-16T15:58:44.955Z,4.14
2017-12-16T16:01:13.210Z,4.00
2017-12-16T16:03:41.535Z,4.24
2017-12-16T16:06:09.786Z,3.80
2017-12-16T16:08:38.027Z,4.06
2017-12-16T16:11:06.307Z,4.04
2017-12-16T16:13:34.594Z,3.94
2017-12-16T16:16:02.880Z,3.28
2017-12-16T16:18:30.816Z,3.42
2017-12-16T16:20:59.963Z,3.00
2017-12-16T16:23:28.866Z,3.32
2017-12-16T16:25:57.110Z,3.10
2017-12-16T16:28:24.619Z,4.42
2017-12-16T16:30:52.890Z,4.12
2017-12-16T16:33:21.217Z,3.90
2017-12-16T16:35:49.507Z,4.44
2017-12-16T16:38:17.833Z,3.80
2017-12-16T16:40:46.073Z,4.14
2017-12-16T16:43:14.388Z,4.04
2017-12-16T16:45:42.640Z,5.00
2017-12-16T16:48:10.915Z,4.64
2017-12-16T16:50:39.195Z,3.88
2017-12-16T16:53:07.467Z,4.24
2017-12-16T16:55:35.709Z,5.04
2017-12-16T16:58:04.032Z,3.90
2017-12-16T17:00:32.369Z,4.10
2017-12-16T17:03:00.618Z,3.66
2017-12-16T17:05:28.945Z,3.94
2017-12-16T17:07:57.229Z,3.40
2017-12-16T17:10:25.555Z,3.62
2017-12-16T17:12:53.829Z,3.72
2017-12-16T17:15:22.130Z,3.40
2017-12-16T17:17:50.409Z,3.98
2017-12-16T17:20:18.707Z,4.72
2017-12-16T17:22:47.032Z,4.12
2017-12-16T17:25:15.307Z,4.38
2017-12-16T17:27:43.550Z,4.10
2017-12-16T17:30:11.833Z,4.12
2017-12-16T17:32:40.110Z,6.14
2017-12-16T17:35:08.409Z,4.28
2017-12-16T17:37:36.737Z,5.00
2017-12-16T17:40:05.002Z,4.82
2017-12-16T17:42:33.238Z,4.60
2017-12-16T17:45:01.569Z,10.22
2017-12-16T17:47:30.670Z,5.94
2017-12-16T17:50:00.135Z,4.44
2017-12-16T17:52:28.433Z,7.28
2017-12-16T17:54:56.728Z,4.28
2017-12-16T17:57:25.024Z,4.32
2017-12-16T17:59:53.308Z,4.26
2017-12-16T18:02:21.716Z,4.32
2017-12-16T18:04:49.967Z,5.50
2017-12-16T18:07:18.256Z,4.72
2017-12-16T18:09:46.576Z,5.74
2017-12-16T18:12:14.846Z,5.62
2017-12-16T18:14:43.164Z,5.44
2017-12-16T18:17:11.493Z,5.36
2017-12-16T18:19:39.789Z,5.94
2017-12-16T18:22:08.085Z,6.22
2017-12-16T18:24:36.376Z,5.50
2017-12-16T18:27:04.686Z,5.86
2017-12-16T18:29:32.958Z,5.96
2017-12-16T18:32:01.554Z,7.14
2017-12-16T18:34:30.410Z,5.98
2017-12-16T18:36:59.586Z,5.62
2017-12-16T18:39:27.918Z,6.04
2017-12-16T18:41:56.216Z,6.46
2017-12-16T18:44:24.529Z,7.10
2017-12-16T18:46:52.843Z,6.46
2017-12-16T18:49:21.164Z,6.10
2017-12-16T18:51:49.470Z,6.54
2017-12-16T18:54:17.801Z,7.48
2017-12-16T18:56:46.125Z,6.32
2017-12-16T18:59:14.445Z,5.76
2017-12-16T19:01:42.805Z,6.94
2017-12-16T19:04:11.105Z,6.60
2017-12-16T19:06:39.341Z,6.28
2017-12-16T19:09:07.605Z,7.36
2017-12-16T19:11:35.905Z,8.40
2017-12-16T19:14:04.245Z,7.12
2017-12-16T19:16:32.557Z,7.92
2017-12-16T19:19:00.897Z,7.88
2017-12-16T19:21:30.152Z,6.62
2017-12-16T19:23:58.447Z,5.72
2017-12-16T19:26:26.790Z,5.86
2017-12-16T19:28:54.309Z,7.50
2017-12-16T19:31:22.605Z,6.80
2017-12-16T19:33:50.928Z,6.70
2017-12-16T19:36:19.254Z,6.66
2017-12-16T19:38:47.592Z,6.96
2017-12-16T19:41:15.893Z,6.92
2017-12-16T19:43:44.197Z,6.86
2017-12-16T19:46:12.520Z,7.76
2017-12-16T19:48:40.812Z,8.08
2017-12-16T19:51:09.109Z,6.90
2017-12-16T19:53:37.400Z,7.30
2017-12-16T19:56:05.677Z,7.22
2017-12-16T19:58:33.974Z,7.50
2017-12-16T20:01:02.293Z,8.40
2017-12-16T20:03:30.637Z,7.64
2017-12-16T20:06:00.007Z,8.46
2017-12-16T20:08:29.077Z,8.48
2017-12-16T20:10:57.400Z,8.82
2017-12-16T20:13:25.701Z,8.90
2017-12-16T20:15:54.029Z,9.84
2017-12-16T20:18:22.292Z,8.90
2017-12-16T20:20:50.617Z,9.72
2017-12-16T20:23:18.920Z,10.26
2017-12-16T20:25:47.213Z,9.02
2017-12-16T20:28:15.533Z,8.06
2017-12-16T20:30:43.829Z,8.72
2017-12-16T20:33:12.099Z,9.12
2017-12-16T20:35:40.396Z,8.50
2017-12-16T20:38:08.723Z,9.02
2017-12-16T20:40:37.056Z,8.52
2017-12-16T20:43:05.401Z,9.16
2017-12-16T20:45:33.684Z,8.94
2017-12-16T20:48:02.005Z,6.68
2017-12-16T20:50:31.213Z,8.06
2017-12-16T20:53:00.744Z,8.28
2017-12-16T20:55:29.901Z,8.38
2017-12-16T20:57:58.893Z,7.42
2017-12-16T21:00:27.214Z,7.52
2017-12-16T21:02:55.551Z,7.62
2017-12-16T21:05:23.877Z,7.88
2017-12-16T21:07:52.180Z,6.76
2017-12-16T21:10:20.509Z,7.70
2017-12-16T21:12:48.800Z,8.28
2017-12-16T21:15:17.128Z,7.12
2017-12-16T21:17:45.424Z,7.88
2017-12-16T21:20:13.741Z,7.08
2017-12-16T21:22:42.065Z,8.22
2017-12-16T21:25:10.351Z,9.18
2017-12-16T21:27:38.681Z,7.36
2017-12-16T21:30:06.968Z,7.52
2017-12-16T21:32:35.284Z,8.70
2017-12-16T21:35:03.605Z,6.90
2017-12-16T21:37:31.928Z,6.92
2017-12-16T21:40:00.930Z,8.34
2017-12-16T21:42:30.092Z,7.88
2017-12-16T21:44:58.724Z,7.54
2017-12-16T21:47:27.051Z,8.20
2017-12-16T21:49:55.358Z,7.76
2017-12-16T21:52:23.690Z,8.08
2017-12-16T21:54:51.993Z,7.88
2017-12-16T21:57:20.317Z,7.52
2017-12-16T21:59:48.608Z,8.94
2017-12-16T22:02:16.937Z,9.02
2017-12-16T22:04:45.216Z,8.26
2017-12-16T22:07:13.509Z,8.60
2017-12-16T22:09:41.834Z,7.46
2017-12-16T22:12:10.132Z,9.24
2017-12-16T22:14:38.447Z,8.68
2017-12-16T22:17:06.763Z,8.08
2017-12-16T22:19:35.093Z,8.78
2017-12-16T22:22:03.416Z,8.88
2017-12-16T22:24:31.747Z,9.56
2017-12-16T22:27:01.108Z,10.08
2017-12-16T22:29:29.469Z,9.44
2017-12-16T22:31:57.740Z,9.80
2017-12-16T22:34:26.077Z,9.60
2017-12-16T22:36:54.385Z,10.08
2017-12-16T22:39:22.700Z,9.02
2017-12-16T22:41:51.021Z,9.78
2017-12-16T22:44:19.314Z,9.42
2017-12-16T22:46:47.643Z,9.48
2017-12-16T22:49:15.946Z,9.74
2017-12-16T22:51:44.289Z,10.02
2017-12-16T22:54:12.586Z,10.72
2017-12-16T22:56:40.909Z,9.92
2017-12-16T22:59:08.440Z,10.38
2017-12-16T23:01:36.761Z,10.38
2017-12-16T23:04:05.094Z,11.88
2017-12-16T23:06:33.398Z,11.10
2017-12-16T23:09:01.694Z,10.20
2017-12-16T23:11:31.020Z,11.68
2017-12-16T23:13:59.349Z,10.38
2017-12-16T23:16:27.679Z,10.76
2017-12-16T23:18:55.923Z,11.54
2017-12-16T23:21:24.265Z,10.68
2017-12-16T23:23:52.556Z,11.32
2017-12-16T23:26:20.843Z,10.80
2017-12-16T23:28:49.177Z,11.88
2017-12-16T23:31:17.471Z,12.10
2017-12-16T23:33:45.032Z,12.08
2017-12-16T23:36:13.277Z,14.46
2017-12-16T23:38:41.577Z,13.20
2017-12-16T23:41:09.901Z,13.06
2017-12-16T23:43:38.226Z,11.30
2017-12-16T23:46:06.525Z,12.28
2017-12-16T23:48:34.802Z,12.40
2017-12-16T23:51:03.123Z,12.60
2017-12-16T23:53:31.440Z,12.68
2017-12-16T23:56:01.025Z,10.72
2017-12-16T23:58:29.624Z,10.32
